createdAt,value
2017-11-26T00:00:45.126Z,47.37
2017-11-26T00:02:48.521Z,47.36
2017-11-26T00:04:51.926Z,47.37
2017-11-26T00:06:55.494Z,47.36
2017-11-26T00:08:58.848Z,47.36
2017-11-26T00:11:02.244Z,47.36
2017-11-26T00:13:05.533Z,47.36
2017-11-26T00:15:08.890Z,47.35
2017-11-26T00:17:18.197Z,47.37
2017-11-26T00:19:21.548Z,47.37
2017-11-26T00:21:25.082Z,47.36
2017-11-26T00:23:28.540Z,47.36
2017-11-26T00:25:31.896Z,47.35
2017-11-26T00:27:35.276Z,47.35
2017-11-26T00:29:38.713Z,47.37
2017-11-26T00:31:42.143Z,47.36
2017-11-26T00:33:45.476Z,47.36
2017-11-26T00:35:49.118Z,47.37
2017-11-26T00:37:52.462Z,47.36
2017-11-26T00:39:55.771Z,47.37
2017-11-26T00:41:59.152Z,47.37
2017-11-26T00:44:02.582Z,47.37
2017-11-26T00:46:05.949Z,47.37
2017-11-26T00:48:09.239Z,47.37
2017-11-26T00:50:12.719Z,47.37
2017-11-26T00:52:16.223Z,47.37
2017-11-26T00:54:19.697Z,47.35
2017-11-26T00:56:23.113Z,47.36
2017-11-26T00:58:26.625Z,47.36
2017-11-26T01:00:30.150Z,47.36
2017-11-26T01:02:38.826Z,47.37
2017-11-26T01:04:42.259Z,47.36
2017-11-26T01:06:45.582Z,47.35
2017-11-26T01:08:50.274Z,47.35
2017-11-26T01:10:54.063Z,47.34
2017-11-26T01:12:57.389Z,47.36
2017-11-26T01:15:00.748Z,47.35
2017-11-26T01:17:04.200Z,47.33
2017-11-26T01:19:07.631Z,47.34
2017-11-26T01:21:11.123Z,47.33
2017-11-26T01:23:14.550Z,47.32
2017-11-26T01:25:17.850Z,47.34
2017-11-26T01:27:21.254Z,47.34
2017-11-26T01:29:24.569Z,47.33
2017-11-26T01:31:27.979Z,47.33
2017-11-26T01:33:31.356Z,47.32
2017-11-26T01:35:34.674Z,47.32
2017-11-26T01:37:38.160Z,47.31
2017-11-26T01:39:41.563Z,47.32
2017-11-26T01:41:44.912Z,47.31
2017-11-26T01:43:48.202Z,47.32
2017-11-26T01:45:51.575Z,47.31
2017-11-26T01:47:55.019Z,47.31
2017-11-26T01:49:58.339Z,47.30
2017-11-26T01:52:01.794Z,47.30
2017-11-26T01:54:05.243Z,47.29
2017-11-26T01:56:08.690Z,47.29
2017-11-26T01:58:12.050Z,47.29
2017-11-26T02:00:15.454Z,47.29
2017-11-26T02:02:19.895Z,47.29
2017-11-26T02:04:23.254Z,47.29
2017-11-26T02:06:26.640Z,47.29
2017-11-26T02:08:29.946Z,47.28
2017-11-26T02:10:33.284Z,47.28
2017-11-26T02:12:36.873Z,47.28
2017-11-26T02:14:40.289Z,47.28
2017-11-26T02:16:43.642Z,47.27
2017-11-26T02:18:47.463Z,47.27
2017-11-26T02:20:50.813Z,47.27
2017-11-26T02:22:54.309Z,47.27
2017-11-26T02:24:57.659Z,47.27
2017-11-26T02:27:01.045Z,47.28
2017-11-26T02:29:04.402Z,47.26
2017-11-26T02:31:20.347Z,47.27
2017-11-26T02:33:35.483Z,47.27
2017-11-26T02:35:39.648Z,47.27
2017-11-26T02:37:43.056Z,47.28
2017-11-26T02:39:46.395Z,47.28
2017-11-26T02:41:49.826Z,47.28
2017-11-26T02:43:53.209Z,47.28
2017-11-26T02:45:56.570Z,47.27
2017-11-26T02:47:59.927Z,47.27
2017-11-26T02:50:03.244Z,47.27
2017-11-26T02:52:06.678Z,47.26
2017-11-26T02:54:10.133Z,47.25
2017-11-26T02:56:13.557Z,47.25
2017-11-26T02:58:22.120Z,47.26
2017-11-26T03:00:25.534Z,47.26
2017-11-26T03:02:28.963Z,47.25
2017-11-26T03:04:32.251Z,47.26
2017-11-26T03:06:35.594Z,47.26
2017-11-26T03:08:39.049Z,47.24
2017-11-26T03:10:42.353Z,47.24
2017-11-26T03:12:45.734Z,47.25
2017-11-26T03:14:49.106Z,47.24
2017-11-26T03:16:52.420Z,47.24
2017-11-26T03:18:55.786Z,47.22
2017-11-26T03:20:59.313Z,47.22
2017-11-26T03:23:02.635Z,47.21
2017-11-26T03:25:06.090Z,47.20
2017-11-26T03:27:09.497Z,47.20
2017-11-26T03:29:13.116Z,47.20
2017-11-26T03:31:16.458Z,47.19
2017-11-26T03:33:19.953Z,47.20
2017-11-26T03:35:23.737Z,47.20
2017-11-26T03:37:27.254Z,47.20
2017-11-26T03:39:30.940Z,47.19
2017-11-26T03:41:34.273Z,47.19
2017-11-26T03:43:37.717Z,47.19
2017-11-26T03:45:41.102Z,47.19
2017-11-26T03:47:44.410Z,47.18
2017-11-26T03:49:47.793Z,47.18
2017-11-26T05:13:24.196Z,48.39
2017-11-26T05:15:27.645Z,48.38
2017-11-26T05:17:31.053Z,48.30
2017-11-26T05:19:34.610Z,48.21
2017-11-26T05:21:37.924Z,48.14
2017-11-26T05:23:41.393Z,48.07
2017-11-26T05:25:44.794Z,47.98
2017-11-26T05:27:48.140Z,47.89
2017-11-26T05:29:51.548Z,47.83
2017-11-26T05:31:54.924Z,47.79
2017-11-26T05:33:58.307Z,47.72
2017-11-26T05:36:01.663Z,47.66
2017-11-26T05:38:05.056Z,47.64
2017-11-26T05:40:08.578Z,47.57
2017-11-26T05:42:12.028Z,47.53
2017-11-26T05:44:15.353Z,47.50
2017-11-26T05:46:18.934Z,47.47
2017-11-26T05:48:22.303Z,47.42
2017-11-26T05:50:25.799Z,47.40
2017-11-26T05:52:29.187Z,47.38
2017-11-26T05:54:32.496Z,47.36
2017-11-26T05:56:35.940Z,47.33
2017-11-26T05:58:39.347Z,47.32
2017-11-26T06:00:42.817Z,47.30
2017-11-26T06:02:46.292Z,47.27
2017-11-26T06:04:49.892Z,47.24
2017-11-26T06:06:53.259Z,47.22
2017-11-26T06:08:56.690Z,47.26
2017-11-26T06:11:00.043Z,47.19
2017-11-26T06:13:03.536Z,47.19
2017-11-26T06:15:06.987Z,47.18
2017-11-26T06:17:10.319Z,47.17
2017-11-26T06:19:13.668Z,47.15
2017-11-26T06:21:17.094Z,47.15
2017-11-26T06:23:20.426Z,47.14
2017-11-26T06:25:23.768Z,47.14
2017-11-26T06:27:27.140Z,47.13
2017-11-26T06:29:30.445Z,47.13
2017-11-26T06:31:33.830Z,47.12
2017-11-26T06:33:37.226Z,47.12
2017-11-26T06:35:40.510Z,47.10
2017-11-26T06:37:43.870Z,47.07
2017-11-26T06:39:47.490Z,47.07
2017-11-26T06:41:50.850Z,47.06
2017-11-26T06:43:54.365Z,47.06
2017-11-26T06:45:57.692Z,47.06
2017-11-26T06:48:01.033Z,47.05
2017-11-26T06:50:04.414Z,47.04
2017-11-26T06:52:07.797Z,47.05
2017-11-26T06:54:11.227Z,47.04
2017-11-26T06:56:14.789Z,47.03
2017-11-26T06:58:18.180Z,47.03
2017-11-26T07:00:21.587Z,47.03
2017-11-26T07:02:25.002Z,47.01
2017-11-26T07:04:28.337Z,47.01
2017-11-26T07:06:31.766Z,47.00
2017-11-26T07:08:35.119Z,46.99
2017-11-26T07:10:38.436Z,46.97
2017-11-26T07:12:41.979Z,46.96
2017-11-26T07:14:45.266Z,46.97
2017-11-26T07:16:48.777Z,46.97
2017-11-26T07:18:52.197Z,46.96
2017-11-26T07:20:55.646Z,46.93
2017-11-26T07:22:59.185Z,46.97
2017-11-26T07:25:02.599Z,46.96
2017-11-26T07:27:05.923Z,46.97
2017-11-26T07:29:09.278Z,46.95
2017-11-26T07:31:12.794Z,46.94
2017-11-26T07:33:16.178Z,46.94
2017-11-26T07:35:19.567Z,46.95
2017-11-26T07:37:22.973Z,46.94
2017-11-26T07:39:26.346Z,46.94
2017-11-26T07:41:29.844Z,46.94
2017-11-26T07:43:33.149Z,46.92
2017-11-26T07:45:36.452Z,46.91
2017-11-26T07:47:39.821Z,46.91
2017-11-26T07:49:43.359Z,46.91
2017-11-26T07:51:46.726Z,46.90
2017-11-26T07:53:50.127Z,46.88
2017-11-26T07:55:53.643Z,46.88
2017-11-26T07:57:57.141Z,46.87
2017-11-26T08:00:01.480Z,46.87
2017-11-26T08:02:04.835Z,46.86
2017-11-26T08:04:08.227Z,46.85
2017-11-26T08:06:11.666Z,46.85
2017-11-26T08:08:14.990Z,46.85
2017-11-26T08:10:18.337Z,46.84
2017-11-26T08:12:22.002Z,46.84
2017-11-26T08:14:25.282Z,46.84
2017-11-26T08:16:28.782Z,46.82
2017-11-26T08:18:32.575Z,46.83
2017-11-26T08:20:36.093Z,46.83
2017-11-26T08:22:39.538Z,46.77
2017-11-26T08:24:43.067Z,46.79
2017-11-26T08:26:46.360Z,46.79
2017-11-26T08:28:49.678Z,46.78
2017-11-26T08:30:53.051Z,46.79
2017-11-26T08:32:56.428Z,46.77
2017-11-26T08:34:59.722Z,46.76
2017-11-26T08:37:03.067Z,46.76
2017-11-26T08:39:06.464Z,46.75
2017-11-26T08:41:09.900Z,46.75
2017-11-26T08:43:13.387Z,46.74
2017-11-26T08:45:17.087Z,46.73
2017-11-26T08:47:20.396Z,46.73
2017-11-26T08:49:24.334Z,46.73
2017-11-26T08:51:27.823Z,46.73
2017-11-26T08:53:31.232Z,46.72
2017-11-26T08:55:34.730Z,46.72
2017-11-26T08:57:38.244Z,46.69
2017-11-26T08:59:41.551Z,46.70
2017-11-26T09:01:44.896Z,46.70
2017-11-26T09:03:48.457Z,46.68
2017-11-26T09:05:51.764Z,46.68
2017-11-26T09:07:57.760Z,46.67
2017-11-26T09:10:01.167Z,46.66
2017-11-26T09:12:04.475Z,46.66
2017-11-26T09:14:07.818Z,46.63
2017-11-26T09:16:11.450Z,46.62
2017-11-26T09:18:14.942Z,46.61
2017-11-26T09:20:18.369Z,46.61
2017-11-26T09:22:21.692Z,46.60
2017-11-26T09:24:25.108Z,46.60
2017-11-26T09:26:28.614Z,46.59
2017-11-26T09:28:31.909Z,46.59
2017-11-26T09:30:35.323Z,46.58
2017-11-26T09:32:38.834Z,46.57
2017-11-26T09:34:42.294Z,46.57
2017-11-26T09:36:45.636Z,46.58
2017-11-26T09:38:49.004Z,46.58
2017-11-26T09:40:52.554Z,46.58
2017-11-26T09:42:56.758Z,46.57
2017-11-26T09:45:00.146Z,46.55
2017-11-26T09:47:03.492Z,46.54
2017-11-26T09:49:06.850Z,46.54
2017-11-26T09:51:10.192Z,46.54
2017-11-26T09:53:13.518Z,46.53
2017-11-26T09:55:16.912Z,46.51
2017-11-26T09:57:20.332Z,46.50
2017-11-26T09:59:23.684Z,46.51
2017-11-26T10:01:27.036Z,46.48
2017-11-26T10:03:30.367Z,46.47
2017-11-26T10:05:33.706Z,46.47
2017-11-26T10:07:37.268Z,46.46
2017-11-26T10:09:40.583Z,46.45
2017-11-26T10:11:43.947Z,46.45
2017-11-26T10:13:47.506Z,46.44
2017-11-26T10:15:50.891Z,46.42
2017-11-26T10:17:54.260Z,46.42
2017-11-26T10:19:57.568Z,46.41
2017-11-26T10:22:00.990Z,46.39
2017-11-26T10:24:04.314Z,46.39
2017-11-26T10:26:07.897Z,46.39
2017-11-26T10:28:12.207Z,46.38
2017-11-26T10:30:15.807Z,46.37
2017-11-26T10:32:19.257Z,46.36
2017-11-26T10:34:22.666Z,46.36
2017-11-26T10:36:25.950Z,46.34
2017-11-26T10:38:29.347Z,46.33
2017-11-26T10:40:32.761Z,46.31
2017-11-26T10:42:36.139Z,46.30
2017-11-26T10:44:39.510Z,46.29
2017-11-26T10:46:42.817Z,46.29
2017-11-26T10:48:46.227Z,46.28
2017-11-26T10:50:49.571Z,46.29
2017-11-26T10:52:53.014Z,46.28
2017-11-26T10:54:56.400Z,46.26
2017-11-26T10:56:59.754Z,46.25
2017-11-26T10:59:03.085Z,46.25
2017-11-26T11:01:06.576Z,46.25
2017-11-26T11:03:09.975Z,46.25
2017-11-26T11:05:13.435Z,46.23
2017-11-26T11:07:16.855Z,46.22
2017-11-26T11:09:20.234Z,46.21
2017-11-26T11:11:23.743Z,46.20
2017-11-26T11:13:27.235Z,46.20
2017-11-26T11:15:30.727Z,46.18
2017-11-26T11:17:34.153Z,46.17
2017-11-26T11:19:37.567Z,46.16
2017-11-26T11:21:40.845Z,46.13
2017-11-26T11:23:44.420Z,46.12
2017-11-26T11:25:47.835Z,46.11
2017-11-26T11:27:51.237Z,46.10
2017-11-26T11:29:54.683Z,46.09
2017-11-26T11:31:58.071Z,46.08
2017-11-26T11:34:01.414Z,46.08
2017-11-26T11:36:04.951Z,46.08
2017-11-26T11:38:08.413Z,46.06
2017-11-26T11:40:11.703Z,46.06
2017-11-26T11:42:15.077Z,46.05
2017-11-26T11:44:18.555Z,46.04
2017-11-26T11:46:21.911Z,46.03
2017-11-26T11:48:25.352Z,46.03
2017-11-26T11:50:28.709Z,46.03
2017-11-26T11:52:32.080Z,46.03
2017-11-26T11:54:35.527Z,46.02
2017-11-26T11:56:38.834Z,46.02
2017-11-26T11:58:42.220Z,46.01
2017-11-26T12:00:45.539Z,46.00
2017-11-26T12:02:48.885Z,45.99
2017-11-26T12:04:52.294Z,45.97
2017-11-26T12:06:55.629Z,45.99
2017-11-26T12:08:58.933Z,45.99
2017-11-26T12:11:02.336Z,45.98
2017-11-26T12:13:05.682Z,45.99
2017-11-26T12:15:09.849Z,45.97
2017-11-26T12:17:13.300Z,45.95
2017-11-26T12:19:16.652Z,45.96
2017-11-26T12:21:19.943Z,45.96
2017-11-26T12:23:23.330Z,45.95
2017-11-26T12:25:26.867Z,45.94
2017-11-26T12:27:30.161Z,45.95
2017-11-26T12:29:33.532Z,45.95
2017-11-26T12:31:36.940Z,45.95
2017-11-26T12:33:40.310Z,45.94
2017-11-26T12:35:43.682Z,45.94
2017-11-26T12:37:47.204Z,45.95
2017-11-26T12:39:50.615Z,45.96
2017-11-26T12:41:53.996Z,45.94
2017-11-26T12:43:57.378Z,45.94
2017-11-26T12:46:00.783Z,45.94
2017-11-26T12:48:04.159Z,45.93
2017-11-26T12:50:07.499Z,45.92
2017-11-26T12:52:10.842Z,45.92
2017-11-26T12:54:14.160Z,45.91
2017-11-26T12:56:17.478Z,45.91
2017-11-26T12:58:20.816Z,45.91
2017-11-26T13:00:24.127Z,45.90
2017-11-26T13:02:27.462Z,45.90
2017-11-26T13:04:30.911Z,45.90
2017-11-26T13:06:34.398Z,45.89
2017-11-26T13:08:37.908Z,45.89
2017-11-26T13:10:41.274Z,45.89
2017-11-26T13:12:44.701Z,45.89
2017-11-26T13:14:48.101Z,45.87
2017-11-26T13:16:51.456Z,45.88
2017-11-26T13:18:54.944Z,45.87
2017-11-26T13:20:58.447Z,45.87
2017-11-26T13:23:01.799Z,45.86
2017-11-26T13:25:05.133Z,45.85
2017-11-26T13:27:08.826Z,45.84
2017-11-26T13:29:12.158Z,45.85
2017-11-26T13:31:15.819Z,45.85
2017-11-26T13:33:19.202Z,45.83
2017-11-26T13:35:22.703Z,45.83
2017-11-26T13:37:26.205Z,45.84
2017-11-26T13:39:29.522Z,45.83
2017-11-26T13:41:32.817Z,45.85
2017-11-26T13:43:36.137Z,45.80
2017-11-26T13:45:39.597Z,45.63
2017-11-26T13:47:42.959Z,45.50
2017-11-26T13:49:46.409Z,45.39
2017-11-26T13:51:49.763Z,45.25
2017-11-26T13:53:53.241Z,45.06
2017-11-26T13:55:56.737Z,44.93
2017-11-26T13:58:00.112Z,44.80
2017-11-26T14:00:03.501Z,44.68
2017-11-26T14:02:07.031Z,44.57
2017-11-26T14:04:10.490Z,44.25
2017-11-26T14:06:13.779Z,44.34
2017-11-26T14:08:17.172Z,44.30
2017-11-26T14:10:20.625Z,44.23
2017-11-26T14:12:23.954Z,44.33
2017-11-26T14:14:27.283Z,44.34
2017-11-26T14:16:30.677Z,44.35
2017-11-26T14:18:34.238Z,44.38
2017-11-26T14:20:37.543Z,44.46
2017-11-26T14:22:41.005Z,44.44
2017-11-26T14:24:44.408Z,44.48
2017-11-26T14:26:47.857Z,44.51
2017-11-26T14:28:51.397Z,44.53
2017-11-26T14:30:54.766Z,44.55
2017-11-26T14:32:58.065Z,44.57
2017-11-26T14:35:01.536Z,44.60
2017-11-26T14:37:04.846Z,44.64
2017-11-26T14:39:08.350Z,44.66
2017-11-26T14:41:11.849Z,44.67
2017-11-26T14:43:15.165Z,44.70
2017-11-26T14:45:18.579Z,44.73
2017-11-26T14:47:22.130Z,44.74
2017-11-26T14:49:25.519Z,44.76
2017-11-26T14:51:28.810Z,44.79
2017-11-26T14:53:32.264Z,44.80
2017-11-26T14:55:35.661Z,44.82
2017-11-26T14:57:38.964Z,44.86
2017-11-26T14:59:42.368Z,44.88
2017-11-26T15:01:45.708Z,44.89
2017-11-26T15:03:49.118Z,44.91
2017-11-26T15:05:52.597Z,44.92
2017-11-26T15:07:55.902Z,44.94
2017-11-26T15:09:59.338Z,44.94
2017-11-26T15:12:02.656Z,44.96
2017-11-26T15:14:06.067Z,44.97
2017-11-26T15:16:09.496Z,44.99
2017-11-26T15:18:12.805Z,45.00
2017-11-26T15:20:16.178Z,45.00
2017-11-26T15:22:19.581Z,45.02
2017-11-26T15:24:22.925Z,45.03
2017-11-26T15:26:26.337Z,45.04
2017-11-26T15:28:29.643Z,45.06
2017-11-26T15:30:33.174Z,45.06
2017-11-26T15:32:36.490Z,45.07
2017-11-26T15:34:39.814Z,45.08
2017-11-26T15:36:43.253Z,45.11
2017-11-26T15:38:46.934Z,45.11
2017-11-26T15:40:50.825Z,45.16
2017-11-26T15:42:54.187Z,45.13
2017-11-26T15:44:57.608Z,45.15
2017-11-26T15:47:00.909Z,45.16
2017-11-26T15:49:04.342Z,45.16
2017-11-26T15:51:07.634Z,45.17
2017-11-26T15:53:11.079Z,45.19
2017-11-26T15:55:14.388Z,45.19
2017-11-26T15:57:17.699Z,45.20
2017-11-26T15:59:20.986Z,45.21
2017-11-26T16:01:24.332Z,45.22
2017-11-26T16:03:27.665Z,45.25
2017-11-26T16:05:31.059Z,45.25
2017-11-26T16:07:34.394Z,45.26
2017-11-26T16:09:37.782Z,45.26
2017-11-26T16:11:41.233Z,45.26
2017-11-26T16:13:44.562Z,45.28
2017-11-26T16:15:47.905Z,45.28
2017-11-26T16:17:51.196Z,45.29
2017-11-26T16:19:54.514Z,45.30
2017-11-26T16:21:57.827Z,45.30
2017-11-26T16:24:02.505Z,45.31
2017-11-26T16:26:05.939Z,45.32
2017-11-26T16:28:09.320Z,45.33
2017-11-26T16:30:12.626Z,45.33
2017-11-26T16:32:16.241Z,45.34
2017-11-26T16:34:19.552Z,45.33
2017-11-26T16:36:22.868Z,45.34
2017-11-26T16:40:35.761Z,45.35
2017-11-26T16:42:39.135Z,45.36
2017-11-26T16:44:42.463Z,45.37
2017-11-26T16:46:45.918Z,45.37
2017-11-26T16:48:49.209Z,45.38
2017-11-26T16:50:52.603Z,45.38
2017-11-26T16:52:55.981Z,45.38
2017-11-26T16:54:59.375Z,45.38
2017-11-26T16:57:02.771Z,45.39
2017-11-26T16:59:06.182Z,45.40
2017-11-26T17:01:09.459Z,45.41
2017-11-26T17:03:12.818Z,45.40
2017-11-26T17:05:16.240Z,45.39
2017-11-26T17:07:19.532Z,45.40
2017-11-26T17:09:22.873Z,45.40
2017-11-26T17:11:26.198Z,45.41
2017-11-26T17:13:29.599Z,45.41
2017-11-26T17:15:32.933Z,45.41
2017-11-26T17:17:36.254Z,45.42
2017-11-26T17:19:39.569Z,45.42
2017-11-26T17:21:42.902Z,45.42
2017-11-26T17:23:46.295Z,45.42
2017-11-26T17:25:49.640Z,45.42
2017-11-26T17:27:52.954Z,45.44
2017-11-26T17:29:56.238Z,45.43
2017-11-26T17:31:59.542Z,45.43
2017-11-26T17:34:03.076Z,45.44
2017-11-26T17:36:06.499Z,45.43
2017-11-26T17:38:09.889Z,45.46
2017-11-26T17:40:13.205Z,45.46
2017-11-26T17:42:16.514Z,45.46
2017-11-26T17:44:19.809Z,45.46
2017-11-26T17:46:23.129Z,45.46
2017-11-26T17:48:26.512Z,45.48
2017-11-26T17:50:29.842Z,45.48
2017-11-26T17:52:33.185Z,45.49
2017-11-26T17:54:36.607Z,45.49
2017-11-26T17:56:39.949Z,45.50
2017-11-26T17:58:43.270Z,45.50
2017-11-26T18:00:46.611Z,45.50
2017-11-26T18:02:49.918Z,45.50
2017-11-26T18:04:53.326Z,45.50
2017-11-26T18:06:56.766Z,45.51
2017-11-26T18:09:00.114Z,45.51
2017-11-26T18:11:03.439Z,45.51
2017-11-26T18:13:06.770Z,45.52
2017-11-26T18:15:10.224Z,45.51
2017-11-26T18:17:13.615Z,45.51
2017-11-26T18:19:16.946Z,45.52
2017-11-26T18:21:20.282Z,45.50
2017-11-26T18:23:23.679Z,45.52
2017-11-26T18:25:27.030Z,45.52
2017-11-26T18:27:30.316Z,45.52
2017-11-26T18:29:33.637Z,45.53
2017-11-26T18:31:37.009Z,45.53
2017-11-26T18:33:40.346Z,45.54
2017-11-26T18:35:43.759Z,45.54
2017-11-26T18:37:47.075Z,45.54
2017-11-26T18:39:50.393Z,45.54
2017-11-26T18:41:53.742Z,45.55
2017-11-26T18:43:57.121Z,45.55
2017-11-26T18:46:00.428Z,45.55
2017-11-26T18:48:03.751Z,45.56
2017-11-26T18:50:07.156Z,45.56
2017-11-26T18:52:10.454Z,45.57
2017-11-26T18:54:13.907Z,45.57
2017-11-26T18:56:17.188Z,45.56
2017-11-26T18:58:20.569Z,45.58
2017-11-26T19:00:23.925Z,45.58
2017-11-26T19:02:27.312Z,45.59
2017-11-26T19:04:30.629Z,45.59
2017-11-26T19:06:34.025Z,45.60
2017-11-26T19:08:37.386Z,45.59
2017-11-26T19:10:40.681Z,45.58
2017-11-26T19:12:44.062Z,45.59
2017-11-26T19:14:47.459Z,45.59
2017-11-26T19:16:50.757Z,45.59
2017-11-26T19:18:54.077Z,45.59
2017-11-26T19:20:57.545Z,45.59
2017-11-26T19:23:00.845Z,45.58
2017-11-26T19:25:04.215Z,45.59
2017-11-26T19:27:07.521Z,45.59
2017-11-26T19:29:10.841Z,45.58
2017-11-26T19:31:14.170Z,45.58
2017-11-26T19:33:17.574Z,45.58
2017-11-26T19:35:20.966Z,45.58
2017-11-26T19:37:24.394Z,45.59
2017-11-26T19:39:27.698Z,45.59
2017-11-26T19:41:31.323Z,45.59
2017-11-26T19:43:34.799Z,45.59
2017-11-26T19:45:38.439Z,45.60
2017-11-26T19:47:42.136Z,45.61
2017-11-26T19:49:46.656Z,45.60
2017-11-26T19:51:51.582Z,45.60
2017-11-26T19:53:55.161Z,45.60
2017-11-26T19:55:58.496Z,45.61
2017-11-26T19:58:01.817Z,45.61
2017-11-26T20:00:05.152Z,45.60
2017-11-26T20:02:08.501Z,45.60
2017-11-26T20:04:11.797Z,45.60
2017-11-26T20:06:15.116Z,45.61
2017-11-26T20:08:18.449Z,45.60
2017-11-26T20:10:21.805Z,45.61
2017-11-26T20:12:25.106Z,45.59
2017-11-26T20:14:28.435Z,45.58
2017-11-26T20:16:31.767Z,45.59
2017-11-26T20:18:35.099Z,45.59
2017-11-26T20:20:38.433Z,45.61
2017-11-26T20:22:41.741Z,45.61
2017-11-26T20:24:45.056Z,45.61
2017-11-26T20:26:48.533Z,45.62
2017-11-26T20:28:51.835Z,45.61
2017-11-26T20:30:55.204Z,45.61
2017-11-26T20:32:58.703Z,45.61
2017-11-26T20:35:02.038Z,45.62
2017-11-26T20:37:05.359Z,45.62
2017-11-26T20:39:08.815Z,45.61
2017-11-26T20:41:12.228Z,45.61
2017-11-26T20:43:15.672Z,45.61
2017-11-26T20:45:19.005Z,45.61
2017-11-26T20:47:22.305Z,45.61
2017-11-26T20:49:25.614Z,45.63
2017-11-26T20:51:28.974Z,45.61
2017-11-26T20:53:32.287Z,45.63
2017-11-26T20:55:35.688Z,45.63
2017-11-26T20:57:39.024Z,45.61
2017-11-26T20:59:42.340Z,45.61
2017-11-26T21:01:45.632Z,45.62
2017-11-26T21:03:49.078Z,45.62
2017-11-26T21:05:52.394Z,45.62
2017-11-26T21:07:55.746Z,45.62
2017-11-26T21:09:59.061Z,45.63
2017-11-26T21:12:02.429Z,45.63
2017-11-26T21:14:05.744Z,45.63
2017-11-26T21:16:09.083Z,45.63
2017-11-26T21:18:13.167Z,45.63
2017-11-26T21:20:16.466Z,45.62
2017-11-26T21:22:19.810Z,45.62
2017-11-26T21:24:23.113Z,45.63
2017-11-26T21:26:26.420Z,45.61
2017-11-26T21:28:29.845Z,45.62
2017-11-26T21:30:33.139Z,45.61
2017-11-26T21:32:36.448Z,45.61
2017-11-26T21:34:39.814Z,45.62
2017-11-26T21:36:43.230Z,45.61
2017-11-26T21:38:46.550Z,45.61
2017-11-26T21:40:50.016Z,45.61
2017-11-26T21:42:53.334Z,45.61
2017-11-26T21:44:57.313Z,45.61
2017-11-26T21:47:00.706Z,45.61
2017-11-26T21:49:04.026Z,45.61
2017-11-26T21:51:07.385Z,45.60
2017-11-26T21:53:10.775Z,45.61
2017-11-26T21:55:14.079Z,45.61
2017-11-26T21:57:17.397Z,45.61
2017-11-26T21:59:20.793Z,45.61
2017-11-26T22:01:24.112Z,45.61
2017-11-26T22:03:27.471Z,45.61
2017-11-26T22:05:30.778Z,45.60
2017-11-26T22:07:34.107Z,45.61
2017-11-26T22:09:37.413Z,45.61
2017-11-26T22:11:40.729Z,45.61
2017-11-26T22:13:44.062Z,45.61
2017-11-26T22:15:47.370Z,45.60
2017-11-26T22:17:50.730Z,45.60
2017-11-26T22:19:54.054Z,45.60
2017-11-26T22:21:57.389Z,45.60
2017-11-26T22:24:00.716Z,45.60
2017-11-26T22:26:04.128Z,45.60
2017-11-26T22:28:07.449Z,45.60
2017-11-26T22:30:10.885Z,45.60
2017-11-26T22:32:14.298Z,45.60
2017-11-26T22:34:17.689Z,45.60
2017-11-26T22:36:21.081Z,45.60
2017-11-26T22:38:24.471Z,45.60
2017-11-26T22:40:27.816Z,45.60
2017-11-26T22:42:31.281Z,45.60
2017-11-26T22:44:34.608Z,45.60
2017-11-26T22:46:38.000Z,45.60
2017-11-26T22:48:41.419Z,45.59
2017-11-26T22:50:44.765Z,45.60
2017-11-26T22:52:48.214Z,45.60
2017-11-26T22:54:51.549Z,45.59
2017-11-26T22:56:54.844Z,45.59
2017-11-26T22:58:58.184Z,45.59
2017-11-26T23:01:01.617Z,45.60
2017-11-26T23:03:04.922Z,45.59
2017-11-26T23:05:08.233Z,45.59
2017-11-26T23:07:11.617Z,45.58
2017-11-26T23:09:14.992Z,45.58
2017-11-26T23:11:18.330Z,45.58
2017-11-26T23:13:21.658Z,45.58
2017-11-26T23:15:24.949Z,45.56
2017-11-26T23:17:28.402Z,45.55
2017-11-26T23:19:31.795Z,45.55
2017-11-26T23:21:35.091Z,45.55
2017-11-26T23:23:38.378Z,45.55
2017-11-26T23:25:41.694Z,45.55
2017-11-26T23:27:45.017Z,45.53
2017-11-26T23:29:48.482Z,45.53
2017-11-26T23:31:51.757Z,45.52
2017-11-26T23:33:55.057Z,45.52
2017-11-26T23:35:58.367Z,45.52
2017-11-26T23:38:01.809Z,45.52
2017-11-26T23:40:06.020Z,45.50
2017-11-26T23:42:09.412Z,45.51
2017-11-26T23:44:12.714Z,45.50
2017-11-26T23:46:16.092Z,45.51
2017-11-26T23:48:19.485Z,45.50
2017-11-26T23:50:22.880Z,45.48
2017-11-26T23:52:26.262Z,45.48
2017-11-26T23:54:29.658Z,45.48
2017-11-26T23:56:32.985Z,45.47
2017-11-26T23:58:36.333Z,45.47
